createdAt,value
2018-08-17T00:00:33.834Z,62.21
2018-08-17T00:01:33.874Z,62.22
2018-08-17T00:02:33.689Z,62.18
2018-08-17T00:03:33.773Z,62.23
2018-08-17T00:04:33.771Z,62.15
2018-08-17T00:05:33.645Z,62.17
2018-08-17T00:06:33.849Z,62.06
2018-08-17T00:07:33.624Z,62.08
2018-08-17T00:08:33.871Z,61.99
2018-08-17T00:09:33.691Z,62.13
2018-08-17T00:10:33.835Z,62.16
2018-08-17T00:11:33.749Z,62.22
2018-08-17T00:12:33.639Z,62.23
2018-08-17T00:13:33.543Z,61.93
2018-08-17T00:14:33.843Z,62.09
2018-08-17T00:15:33.688Z,62.19
2018-08-17T00:16:33.900Z,62.13
2018-08-17T00:17:33.740Z,62.17
2018-08-17T00:18:33.733Z,62.16
2018-08-17T00:19:33.655Z,62.19
2018-08-17T00:20:33.645Z,62.1
2018-08-17T00:21:33.879Z,62.18
2018-08-17T00:22:33.700Z,62.21
2018-08-17T00:23:33.857Z,62.21
2018-08-17T00:24:33.820Z,62.06
2018-08-17T00:25:33.746Z,62.1
2018-08-17T00:26:33.867Z,62.08
2018-08-17T00:27:33.769Z,62.12
2018-08-17T00:28:33.702Z,62.2
2018-08-17T00:29:33.788Z,62.17
2018-08-17T00:30:33.762Z,62.2
2018-08-17T00:31:33.666Z,62.17
2018-08-17T00:32:33.628Z,62.1
2018-08-17T00:33:33.891Z,62.04
2018-08-17T00:34:33.997Z,62.19
2018-08-17T00:35:33.833Z,62.16
2018-08-17T00:36:33.940Z,62.11
2018-08-17T00:37:33.655Z,62.22
2018-08-17T00:38:33.934Z,62.17
2018-08-17T00:39:33.723Z,62.15
2018-08-17T00:40:33.720Z,62.19
2018-08-17T00:41:33.643Z,62.23
2018-08-17T00:42:33.679Z,62.11
2018-08-17T00:43:33.708Z,62.16
2018-08-17T00:44:33.625Z,62.05
2018-08-17T00:45:33.659Z,62.19
2018-08-17T00:46:33.874Z,62.12
2018-08-17T00:47:33.733Z,62.06
2018-08-17T00:48:33.709Z,62.21
2018-08-17T00:49:33.686Z,62.19
2018-08-17T00:50:33.796Z,62.17
2018-08-17T00:51:33.627Z,62.17
2018-08-17T00:52:33.769Z,62.18
2018-08-17T00:53:33.825Z,62.1
2018-08-17T00:54:33.656Z,62.12
2018-08-17T00:55:33.773Z,62.23
2018-08-17T00:56:33.779Z,62.16
2018-08-17T00:57:33.717Z,62.15
2018-08-17T00:58:33.752Z,62.11
2018-08-17T00:59:33.824Z,62.11
2018-08-17T01:00:33.716Z,62.05
2018-08-17T01:01:33.567Z,62.17
2018-08-17T01:02:33.603Z,62.17
2018-08-17T01:03:33.781Z,62.19
2018-08-17T01:04:33.858Z,62.11
2018-08-17T01:05:33.822Z,61.97
2018-08-17T01:06:33.912Z,62.02
2018-08-17T01:07:33.607Z,62.11
2018-08-17T01:08:33.720Z,62.13
2018-08-17T01:09:33.820Z,62.03
2018-08-17T01:10:33.892Z,62.1
2018-08-17T01:11:33.726Z,62.07
2018-08-17T01:12:33.625Z,62.22
2018-08-17T01:13:33.651Z,62.11
2018-08-17T01:14:33.848Z,62.12
2018-08-17T01:15:33.974Z,62.17
2018-08-17T01:16:33.624Z,62.13
2018-08-17T01:17:33.868Z,62.21
2018-08-17T01:18:33.773Z,62.12
2018-08-17T01:19:33.617Z,62.12
2018-08-17T01:20:33.570Z,62.11
2018-08-17T01:21:33.783Z,62.03
2018-08-17T01:22:33.715Z,62.15
2018-08-17T01:23:33.598Z,62.11
2018-08-17T01:24:33.760Z,62.05
2018-08-17T01:25:33.580Z,62.2
2018-08-17T01:26:33.735Z,62.15
2018-08-17T01:27:33.661Z,62.03
2018-08-17T01:28:33.667Z,62.14
2018-08-17T01:29:33.654Z,62.15
2018-08-17T01:30:33.638Z,62.2
2018-08-17T01:31:33.800Z,62.07
2018-08-17T01:32:33.636Z,62.04
2018-08-17T01:33:33.640Z,62.34
2018-08-17T01:34:33.653Z,62.03
2018-08-17T01:35:33.589Z,62.21
2018-08-17T01:36:33.770Z,62.09
2018-08-17T01:37:33.711Z,62.12
2018-08-17T01:38:33.912Z,62.15
2018-08-17T01:39:33.664Z,62.3
2018-08-17T01:40:33.801Z,61.99
2018-08-17T01:41:33.668Z,62.17
2018-08-17T01:42:33.724Z,62.11
2018-08-17T01:43:33.611Z,62.22
2018-08-17T01:44:33.575Z,62
2018-08-17T01:45:33.792Z,62.2
2018-08-17T01:46:34.019Z,62.15
2018-08-17T01:47:33.612Z,62.07
2018-08-17T01:48:33.701Z,62.15
2018-08-17T01:49:33.764Z,62.08
2018-08-17T01:50:33.731Z,62.23
2018-08-17T01:51:34.127Z,62.09
2018-08-17T01:52:33.633Z,62.13
2018-08-17T01:53:33.620Z,62.28
2018-08-17T01:54:33.849Z,62.01
2018-08-17T01:55:34.222Z,62.19
2018-08-17T01:56:33.902Z,62.11
2018-08-17T01:57:33.789Z,62.11
2018-08-17T01:58:33.920Z,62.11
2018-08-17T01:59:33.759Z,62.16
2018-08-17T02:00:33.685Z,62.13
2018-08-17T02:01:33.685Z,62.2
2018-08-17T02:02:33.689Z,62.15
2018-08-17T02:03:33.933Z,62.19
2018-08-17T02:04:33.674Z,62.07
2018-08-17T02:05:33.755Z,62.23
2018-08-17T02:06:33.586Z,62.24
2018-08-17T02:07:33.764Z,62.15
2018-08-17T02:08:33.894Z,61.94
2018-08-17T02:09:33.642Z,62.13
2018-08-17T02:10:33.830Z,62.22
2018-08-17T02:11:33.948Z,62.12
2018-08-17T02:12:33.646Z,62.02
2018-08-17T02:13:33.591Z,62.24
2018-08-17T02:14:33.934Z,62.28
2018-08-17T02:15:33.869Z,62.09
2018-08-17T02:16:33.757Z,62.12
2018-08-17T02:17:33.591Z,62.11
2018-08-17T02:18:33.640Z,62.08
2018-08-17T02:19:33.820Z,62.11
2018-08-17T02:20:33.649Z,62.1
2018-08-17T02:21:33.638Z,62.12
2018-08-17T02:22:33.989Z,62.08
2018-08-17T02:23:33.558Z,62.21
2018-08-17T02:24:34.141Z,62.08
2018-08-17T02:25:33.696Z,62.13
2018-08-17T02:26:33.690Z,61.98
2018-08-17T02:27:33.647Z,62.09
2018-08-17T02:28:33.693Z,61.99
2018-08-17T02:29:33.738Z,62.14
2018-08-17T02:30:33.756Z,62.1
2018-08-17T02:31:33.896Z,62.21
2018-08-17T02:32:33.657Z,62.13
2018-08-17T02:33:33.826Z,62.16
2018-08-17T02:34:33.709Z,62.16
2018-08-17T02:35:33.529Z,62.14
2018-08-17T02:36:33.805Z,62.15
2018-08-17T02:37:33.861Z,62.08
2018-08-17T02:38:33.738Z,62.08
2018-08-17T02:39:33.587Z,62.2
2018-08-17T02:40:33.628Z,62.14
2018-08-17T02:41:33.649Z,62.07
2018-08-17T02:42:33.834Z,62.12
2018-08-17T02:43:33.556Z,62.11
2018-08-17T02:44:33.738Z,62.15
2018-08-17T02:45:33.575Z,62.27
2018-08-17T02:46:33.603Z,62.11
2018-08-17T02:47:33.645Z,62.14
2018-08-17T02:48:33.568Z,62.18
2018-08-17T02:49:33.679Z,62.09
2018-08-17T02:50:33.552Z,62.15
2018-08-17T02:51:33.688Z,62.1
2018-08-17T02:52:33.628Z,62.14
2018-08-17T02:53:33.709Z,62.05
2018-08-17T02:54:33.626Z,62.2
2018-08-17T02:55:33.768Z,62.24
2018-08-17T02:56:33.772Z,62.14
2018-08-17T02:57:33.614Z,62.02
2018-08-17T02:58:33.657Z,62.1
2018-08-17T02:59:33.673Z,62.13
2018-08-17T03:00:33.696Z,62.16
2018-08-17T03:01:33.852Z,62.15
2018-08-17T03:02:33.834Z,62.15
2018-08-17T03:03:33.646Z,62.31
2018-08-17T03:04:33.836Z,62.09
2018-08-17T03:05:33.743Z,62.18
2018-08-17T03:06:33.801Z,62.29
2018-08-17T03:07:33.671Z,62.04
2018-08-17T03:08:34.123Z,62.09
2018-08-17T03:09:33.809Z,62.09
2018-08-17T03:10:33.740Z,62.15
2018-08-17T03:11:33.721Z,62.09
2018-08-17T03:12:33.794Z,62.01
2018-08-17T03:13:33.648Z,62.22
2018-08-17T03:14:33.923Z,61.95
2018-08-17T03:15:33.664Z,62.13
2018-08-17T03:16:33.727Z,62.1
2018-08-17T03:17:34.093Z,62.07
2018-08-17T03:18:33.913Z,62.16
2018-08-17T03:19:33.673Z,61.94
2018-08-17T03:20:33.891Z,61.89
2018-08-17T03:21:33.629Z,62.08
2018-08-17T03:22:34.076Z,62.11
2018-08-17T03:23:33.527Z,62.04
2018-08-17T03:24:33.812Z,62.39
2018-08-17T03:25:33.678Z,62.18
2018-08-17T03:26:33.683Z,61.86
2018-08-17T03:27:33.681Z,62.08
2018-08-17T03:28:33.794Z,62.07
2018-08-17T03:29:33.880Z,62.05
2018-08-17T03:30:33.784Z,62.16
2018-08-17T03:31:33.682Z,62.09
2018-08-17T03:32:33.792Z,62.16
2018-08-17T03:33:34.041Z,62.17
2018-08-17T03:34:33.731Z,62.22
2018-08-17T03:35:33.917Z,62.1
2018-08-17T03:36:33.737Z,62.29
2018-08-17T03:37:33.634Z,62.11
2018-08-17T03:38:33.747Z,62.17
2018-08-17T03:39:33.716Z,62.31
2018-08-17T03:40:33.786Z,62.07
2018-08-17T03:41:33.614Z,62.23
2018-08-17T03:42:33.676Z,62.2
2018-08-17T03:43:33.641Z,61.98
2018-08-17T03:44:33.677Z,62.25
2018-08-17T03:45:33.677Z,62.14
2018-08-17T03:46:33.619Z,62.18
2018-08-17T03:47:33.748Z,62.19
2018-08-17T03:48:33.644Z,62.13
2018-08-17T03:49:33.833Z,62.05
2018-08-17T03:50:33.579Z,62.15
2018-08-17T03:51:33.571Z,62.09
2018-08-17T03:52:33.547Z,62.22
2018-08-17T03:53:33.757Z,62.11
2018-08-17T03:54:33.671Z,62.22
2018-08-17T03:55:33.748Z,62.08
2018-08-17T03:56:33.633Z,62.06
2018-08-17T03:57:33.547Z,62.09
2018-08-17T03:58:33.763Z,62.07
2018-08-17T03:59:33.589Z,62.1
2018-08-17T04:00:33.827Z,62.16
2018-08-17T04:01:33.616Z,62.05
2018-08-17T04:02:33.621Z,62.14
2018-08-17T04:03:33.581Z,61.99
2018-08-17T04:04:33.725Z,62.17
2018-08-17T04:05:33.794Z,62.1
2018-08-17T04:06:33.782Z,62.04
2018-08-17T04:07:33.793Z,62.18
2018-08-17T04:08:33.579Z,62
2018-08-17T04:09:33.550Z,61.88
2018-08-17T04:10:33.763Z,61.81
2018-08-17T04:11:33.870Z,62.18
2018-08-17T04:12:33.715Z,62.1
2018-08-17T04:13:33.818Z,62.16
2018-08-17T04:14:33.689Z,62.02
2018-08-17T04:15:34.019Z,62.3
2018-08-17T04:16:33.739Z,62.2
2018-08-17T04:17:33.607Z,62.19
2018-08-17T04:18:33.612Z,62.22
2018-08-17T04:19:33.732Z,62.13
2018-08-17T04:20:33.623Z,62.13
2018-08-17T04:21:33.921Z,62.15
2018-08-17T04:22:33.663Z,62.2
2018-08-17T04:23:33.600Z,62.24
2018-08-17T04:24:34.049Z,62.14
2018-08-17T04:25:33.921Z,62.14
2018-08-17T04:26:33.592Z,62.12
2018-08-17T04:27:33.635Z,62.1
2018-08-17T04:28:33.893Z,62.11
2018-08-17T04:29:33.773Z,62.13
2018-08-17T04:30:33.668Z,62.11
2018-08-17T04:31:33.705Z,62.06
2018-08-17T04:32:33.704Z,62.13
2018-08-17T04:33:33.890Z,62.11
2018-08-17T04:34:33.830Z,62.07
2018-08-17T04:35:33.827Z,62.21
2018-08-17T04:36:33.952Z,62.16
2018-08-17T04:37:33.685Z,62.12
2018-08-17T04:38:33.683Z,62.15
2018-08-17T04:39:33.739Z,62.22
2018-08-17T04:40:33.620Z,62.19
2018-08-17T04:41:33.577Z,62.14
2018-08-17T04:42:33.833Z,62.22
2018-08-17T04:43:33.875Z,62.21
2018-08-17T04:44:33.785Z,62.24
2018-08-17T04:45:33.715Z,62.2
2018-08-17T04:46:33.468Z,62.05
2018-08-17T04:47:33.817Z,62.05
2018-08-17T04:48:33.978Z,62.15
2018-08-17T04:49:33.701Z,62.13
2018-08-17T04:50:33.813Z,62.14
2018-08-17T04:51:33.718Z,62.1
2018-08-17T04:52:33.658Z,62.2
2018-08-17T04:53:33.839Z,62.11
2018-08-17T04:54:33.754Z,62.12
2018-08-17T04:55:33.590Z,62.17
2018-08-17T04:56:33.991Z,62.09
2018-08-17T04:57:33.780Z,62.07
2018-08-17T04:58:33.792Z,62.07
2018-08-17T04:59:33.781Z,62.14
2018-08-17T05:00:33.704Z,62.11
2018-08-17T05:01:33.781Z,62.1
2018-08-17T05:02:33.836Z,62.17
2018-08-17T05:03:33.965Z,62.08
2018-08-17T05:04:33.562Z,62.19
2018-08-17T05:05:33.821Z,62.11
2018-08-17T05:06:33.646Z,62.17
2018-08-17T05:07:33.650Z,62.06
2018-08-17T05:08:33.672Z,62.07
2018-08-17T05:09:33.599Z,62.22
2018-08-17T05:10:33.688Z,62.07
2018-08-17T05:11:33.743Z,62.13
2018-08-17T05:12:33.620Z,62.09
2018-08-17T05:13:33.494Z,62.21
2018-08-17T05:14:33.679Z,62.25
2018-08-17T05:15:33.765Z,62.21
2018-08-17T05:16:33.521Z,62.21
2018-08-17T05:17:33.764Z,62.18
2018-08-17T05:18:33.592Z,62.22
2018-08-17T05:19:33.750Z,62.14
2018-08-17T05:20:33.498Z,62.27
2018-08-17T05:21:33.953Z,62.11
2018-08-17T05:22:33.613Z,62.1
2018-08-17T05:23:33.572Z,62.09
2018-08-17T05:24:33.602Z,62.42
2018-08-17T05:25:33.522Z,62.2
2018-08-17T05:26:33.974Z,62.23
2018-08-17T05:27:33.774Z,62
2018-08-17T05:28:33.624Z,62.13
2018-08-17T05:29:33.665Z,62.28
2018-08-17T05:30:33.680Z,62.22
2018-08-17T05:31:33.764Z,62.17
2018-08-17T05:32:33.629Z,62.21
2018-08-17T05:33:33.708Z,62.26
2018-08-17T05:34:33.680Z,62.22
2018-08-17T05:35:33.651Z,62.1
2018-08-17T05:36:33.682Z,62.15
2018-08-17T05:37:33.687Z,62.22
2018-08-17T05:38:33.689Z,61.96
2018-08-17T05:39:33.737Z,62.1
2018-08-17T05:40:33.630Z,62.31
2018-08-17T05:41:33.590Z,62.24
2018-08-17T05:42:33.718Z,62.21
2018-08-17T05:43:33.668Z,62.14
2018-08-17T05:44:33.781Z,62.19
2018-08-17T05:45:33.750Z,62.2
2018-08-17T05:46:33.796Z,62.2
2018-08-17T05:47:33.584Z,62.16
2018-08-17T05:48:33.809Z,62.22
2018-08-17T05:49:33.664Z,62.29
2018-08-17T05:50:33.757Z,62.23
2018-08-17T05:51:33.686Z,62.26
2018-08-17T05:52:33.619Z,62.19
2018-08-17T05:53:33.714Z,62.16
2018-08-17T05:54:33.641Z,62.14
2018-08-17T05:55:33.644Z,62.17
2018-08-17T05:56:33.918Z,62.15
2018-08-17T05:57:33.676Z,62.17
2018-08-17T05:58:33.658Z,62.27
2018-08-17T05:59:33.554Z,62.19
2018-08-17T06:00:33.482Z,62.14
2018-08-17T06:01:33.770Z,62.16
2018-08-17T06:02:33.706Z,62.33
2018-08-17T06:03:33.856Z,61.79
2018-08-17T06:04:33.757Z,61.66
2018-08-17T06:05:33.714Z,61.72
2018-08-17T06:06:33.686Z,61.62
2018-08-17T06:07:33.693Z,61.64
2018-08-17T06:08:33.784Z,61.49
2018-08-17T06:09:33.873Z,61.51
2018-08-17T06:10:33.690Z,61.65
2018-08-17T06:11:33.803Z,61.43
2018-08-17T06:12:33.601Z,61.51
2018-08-17T06:13:33.610Z,61.44
2018-08-17T06:14:33.619Z,61.2
2018-08-17T06:15:33.649Z,61.54
2018-08-17T06:16:33.719Z,61.25
2018-08-17T06:17:33.836Z,61.53
2018-08-17T06:18:33.734Z,61.39
2018-08-17T06:19:33.652Z,61.46
2018-08-17T06:20:34.693Z,61.62
2018-08-17T06:21:33.730Z,61.62
2018-08-17T06:22:33.758Z,61.64
2018-08-17T06:23:33.601Z,61.63
2018-08-17T06:24:33.551Z,61.58
2018-08-17T06:25:33.670Z,61.65
2018-08-17T06:26:33.588Z,61.64
2018-08-17T06:27:33.744Z,61.52
2018-08-17T06:28:33.612Z,61.55
2018-08-17T06:29:33.430Z,61.67
2018-08-17T06:30:33.618Z,61.67
2018-08-17T06:31:33.706Z,61.6
2018-08-17T06:32:33.692Z,61.67
2018-08-17T06:33:33.540Z,61.96
2018-08-17T06:34:33.683Z,61.81
2018-08-17T06:35:33.609Z,61.71
2018-08-17T06:36:33.669Z,61.68
2018-08-17T06:37:33.612Z,61.7
2018-08-17T06:38:33.444Z,61.6
2018-08-17T06:39:33.577Z,61.7
2018-08-17T06:40:33.623Z,61.55
2018-08-17T06:41:33.600Z,61.63
2018-08-17T06:42:34.262Z,61.76
2018-08-17T06:43:33.571Z,61.88
2018-08-17T06:44:33.686Z,61.68
2018-08-17T06:45:33.691Z,61.75
2018-08-17T06:46:33.514Z,61.65
2018-08-17T06:47:33.655Z,61.75
2018-08-17T06:48:33.519Z,61.62
2018-08-17T06:49:33.511Z,61.75
2018-08-17T06:50:33.778Z,61.7
2018-08-17T06:51:33.671Z,61.84
2018-08-17T06:52:33.562Z,61.71
2018-08-17T06:53:33.662Z,61.82
2018-08-17T06:54:33.638Z,61.67
2018-08-17T06:55:33.648Z,61.67
2018-08-17T06:56:33.789Z,61.8
2018-08-17T06:57:34.002Z,61.87
2018-08-17T06:58:33.564Z,61.82
2018-08-17T06:59:33.483Z,61.7
2018-08-17T07:00:33.631Z,61.7
2018-08-17T07:01:33.613Z,62.01
2018-08-17T07:02:33.817Z,61.87
2018-08-17T07:03:33.731Z,61.82
2018-08-17T07:04:33.919Z,61.88
2018-08-17T07:05:33.708Z,61.68
2018-08-17T07:06:33.761Z,61.75
2018-08-17T07:07:34.050Z,61.85
2018-08-17T07:08:34.131Z,61.75
2018-08-17T07:09:33.801Z,61.64
2018-08-17T07:10:34.014Z,61.76
2018-08-17T07:11:33.599Z,61.79
2018-08-17T07:12:33.623Z,61.76
2018-08-17T07:13:34.149Z,61.74
2018-08-17T07:14:33.763Z,61.82
2018-08-17T07:15:33.784Z,61.76
2018-08-17T07:16:33.733Z,61.76
2018-08-17T07:17:34.131Z,61.95
2018-08-17T07:18:34.006Z,61.87
2018-08-17T07:19:33.864Z,61.78
2018-08-17T07:20:33.772Z,61.68
2018-08-17T07:21:33.806Z,61.71
2018-08-17T07:22:34.148Z,61.79
2018-08-17T07:23:33.689Z,61.94
2018-08-17T07:24:33.782Z,61.8
2018-08-17T07:25:33.808Z,61.79
2018-08-17T07:26:33.696Z,61.67
2018-08-17T07:27:33.513Z,61.73
2018-08-17T07:28:33.619Z,61.95
2018-08-17T07:29:33.621Z,61.75
2018-08-17T07:30:33.720Z,61.8
2018-08-17T07:31:33.755Z,61.7
2018-08-17T07:32:34.127Z,61.71
2018-08-17T07:33:33.648Z,61.85
2018-08-17T07:34:33.591Z,61.82
2018-08-17T07:35:33.890Z,61.8
2018-08-17T07:36:33.752Z,61.72
2018-08-17T07:37:33.651Z,61.88
2018-08-17T07:38:33.715Z,61.88
2018-08-17T07:39:33.523Z,61.7
2018-08-17T07:40:33.642Z,61.89
2018-08-17T07:41:33.609Z,61.68
2018-08-17T07:42:33.515Z,61.84
2018-08-17T07:43:33.523Z,61.85
2018-08-17T07:44:33.596Z,61.79
2018-08-17T07:45:33.561Z,61.94
2018-08-17T07:46:33.649Z,61.85
2018-08-17T07:47:33.587Z,61.98
2018-08-17T07:48:33.632Z,61.8
2018-08-17T07:49:33.595Z,61.85
2018-08-17T07:50:33.756Z,61.89
2018-08-17T07:51:33.621Z,61.92
2018-08-17T07:52:33.488Z,61.7
2018-08-17T07:53:33.486Z,61.87
2018-08-17T07:54:33.568Z,61.76
2018-08-17T07:55:33.806Z,61.85
2018-08-17T07:56:33.678Z,61.97
2018-08-17T07:57:33.698Z,61.81
2018-08-17T07:58:33.660Z,62
2018-08-17T07:59:33.735Z,62.05
2018-08-17T08:00:33.664Z,61.9
2018-08-17T08:01:33.759Z,62.05
2018-08-17T08:02:33.690Z,62.07
2018-08-17T08:03:33.622Z,61.81
2018-08-17T08:04:33.731Z,62.01
2018-08-17T08:05:33.717Z,62.22
2018-08-17T08:06:33.793Z,61.99
2018-08-17T08:07:33.654Z,62.02
2018-08-17T08:08:33.782Z,62.06
2018-08-17T08:09:33.640Z,62.04
2018-08-17T08:10:33.497Z,62
2018-08-17T08:11:33.673Z,61.92
2018-08-17T08:12:33.753Z,62.09
2018-08-17T08:13:33.728Z,61.89
2018-08-17T08:14:33.649Z,62.02
2018-08-17T08:15:33.665Z,61.95
2018-08-17T08:16:33.638Z,61.9
2018-08-17T08:17:33.526Z,62.08
2018-08-17T08:18:33.714Z,62.05
2018-08-17T08:19:33.669Z,62
2018-08-17T08:20:33.554Z,62
2018-08-17T08:21:33.666Z,62.04
2018-08-17T08:22:33.800Z,61.92
2018-08-17T08:23:33.597Z,62.02
2018-08-17T08:24:33.721Z,62.08
2018-08-17T08:25:33.659Z,62.01
2018-08-17T08:26:33.423Z,62
2018-08-17T08:27:33.711Z,61.97
2018-08-17T08:28:33.566Z,62.08
2018-08-17T08:29:33.718Z,62.01
2018-08-17T08:30:33.657Z,61.82
2018-08-17T08:31:33.627Z,62.03
2018-08-17T08:32:33.698Z,61.95
2018-08-17T08:33:33.717Z,61.97
2018-08-17T08:34:33.592Z,62.03
2018-08-17T08:35:33.657Z,62.2
2018-08-17T08:36:33.681Z,62
2018-08-17T08:37:33.514Z,62.05
2018-08-17T08:38:33.624Z,62.06
2018-08-17T08:39:33.591Z,61.92
2018-08-17T08:40:33.616Z,61.97
2018-08-17T08:41:33.857Z,62.21
2018-08-17T08:42:33.691Z,61.9
2018-08-17T08:43:33.704Z,62.05
2018-08-17T08:44:33.678Z,62.18
2018-08-17T08:45:33.715Z,61.97
2018-08-17T08:46:34.200Z,62
2018-08-17T08:47:33.581Z,61.91
2018-08-17T08:48:33.656Z,61.93
2018-08-17T08:49:33.571Z,61.96
2018-08-17T08:50:33.609Z,62.04
2018-08-17T08:51:33.740Z,61.96
2018-08-17T08:52:33.749Z,61.96
2018-08-17T08:53:33.699Z,61.97
2018-08-17T08:54:33.593Z,62.08
2018-08-17T08:55:33.583Z,61.98
2018-08-17T08:56:33.669Z,62.05
2018-08-17T08:57:33.530Z,61.9
2018-08-17T08:58:33.694Z,62.07
2018-08-17T08:59:33.660Z,62.16
2018-08-17T09:00:33.539Z,61.97
2018-08-17T09:01:33.524Z,62.01
2018-08-17T09:02:33.548Z,61.9
2018-08-17T09:03:33.745Z,61.98
2018-08-17T09:04:33.576Z,62.22
2018-08-17T09:05:33.581Z,62.02
2018-08-17T09:06:33.520Z,61.92
2018-08-17T09:07:33.649Z,62
2018-08-17T09:08:33.614Z,62
2018-08-17T09:09:33.780Z,62.03
2018-08-17T09:10:33.693Z,62.02
2018-08-17T09:11:33.489Z,62.01
2018-08-17T09:12:33.633Z,62.05
2018-08-17T09:13:33.697Z,62.01
2018-08-17T09:14:33.568Z,61.92
2018-08-17T09:15:33.641Z,61.94
2018-08-17T09:16:33.628Z,61.84
2018-08-17T09:17:33.577Z,62.02
2018-08-17T09:18:33.799Z,61.96
2018-08-17T09:19:33.763Z,61.98
2018-08-17T09:20:33.661Z,61.97
2018-08-17T09:21:33.721Z,61.89
2018-08-17T09:22:33.577Z,62.03
2018-08-17T09:23:33.738Z,61.96
2018-08-17T09:24:33.661Z,62.02
2018-08-17T09:25:33.868Z,62.09
2018-08-17T09:26:33.769Z,61.9
2018-08-17T09:27:33.640Z,61.84
2018-08-17T09:28:33.639Z,61.9
2018-08-17T09:29:33.469Z,61.94
2018-08-17T09:30:33.523Z,61.95
2018-08-17T09:31:33.713Z,62.3
2018-08-17T09:32:33.699Z,62.02
2018-08-17T09:33:33.633Z,61.93
2018-08-17T09:34:33.648Z,61.9
2018-08-17T09:35:33.616Z,62.14
2018-08-17T09:36:33.734Z,62
2018-08-17T09:37:33.590Z,61.97
2018-08-17T09:38:33.783Z,61.93
2018-08-17T09:39:33.627Z,61.95
2018-08-17T09:40:33.607Z,61.97
2018-08-17T09:41:33.726Z,61.92
2018-08-17T09:42:33.457Z,62.08
2018-08-17T09:43:33.748Z,61.89
2018-08-17T09:44:33.680Z,62
2018-08-17T09:45:33.702Z,61.74
2018-08-17T09:46:33.650Z,62.04
2018-08-17T09:47:33.616Z,61.86
2018-08-17T09:48:33.550Z,61.86
2018-08-17T09:49:33.899Z,62.11
2018-08-17T09:50:33.704Z,62
2018-08-17T09:51:33.469Z,61.93
2018-08-17T09:52:33.699Z,61.95
2018-08-17T09:53:33.618Z,62.13
2018-08-17T09:54:33.455Z,62.05
2018-08-17T09:55:33.650Z,61.82
2018-08-17T09:56:33.768Z,61.97
2018-08-17T09:57:33.831Z,61.97
2018-08-17T09:58:33.698Z,61.83
2018-08-17T09:59:33.699Z,62.09
2018-08-17T10:00:33.669Z,62.15
2018-08-17T10:01:33.665Z,62.03
2018-08-17T10:02:33.464Z,61.96
2018-08-17T10:03:33.658Z,62.09
2018-08-17T10:04:33.700Z,61.89
2018-08-17T10:05:33.583Z,61.97
2018-08-17T10:06:33.764Z,61.98
2018-08-17T10:07:33.762Z,61.99
2018-08-17T10:08:33.715Z,62.06
2018-08-17T10:09:34.610Z,61.87
2018-08-17T10:10:33.789Z,62.02
2018-08-17T10:11:33.496Z,62.01
2018-08-17T10:12:33.606Z,61.87
2018-08-17T10:13:33.569Z,61.97
2018-08-17T10:14:33.648Z,61.9
2018-08-17T10:15:33.544Z,61.93
2018-08-17T10:16:33.652Z,61.92
2018-08-17T10:17:33.785Z,61.94
2018-08-17T10:18:33.727Z,61.96
2018-08-17T10:19:33.621Z,61.92
2018-08-17T10:20:33.432Z,62.04
2018-08-17T10:21:34.701Z,62.01
2018-08-17T10:22:33.735Z,61.86
2018-08-17T10:23:33.675Z,61.96
2018-08-17T10:24:33.673Z,61.92
2018-08-17T10:25:33.734Z,61.83
2018-08-17T10:26:33.429Z,61.96
2018-08-17T10:27:33.591Z,61.9
2018-08-17T10:28:33.583Z,61.88
2018-08-17T10:29:33.414Z,61.92
2018-08-17T10:30:33.461Z,61.98
2018-08-17T10:31:33.628Z,62.02
2018-08-17T10:32:33.731Z,62.07
2018-08-17T10:33:33.627Z,61.82
2018-08-17T10:34:33.523Z,61.87
2018-08-17T10:35:33.497Z,61.85
2018-08-17T10:36:33.810Z,62.09
2018-08-17T10:37:33.536Z,61.94
2018-08-17T10:38:33.759Z,61.98
2018-08-17T10:39:33.622Z,62.02
2018-08-17T10:40:33.859Z,61.88
2018-08-17T10:41:33.695Z,61.96
2018-08-17T10:42:33.819Z,62.01
2018-08-17T10:43:34.068Z,61.67
2018-08-17T10:44:33.736Z,62.08
2018-08-17T10:45:33.931Z,61.89
2018-08-17T10:46:34.164Z,62.07
2018-08-17T10:47:33.532Z,62.01
2018-08-17T10:48:33.844Z,61.95
2018-08-17T10:49:33.794Z,62.02
2018-08-17T10:50:33.537Z,61.98
2018-08-17T10:51:33.922Z,61.82
2018-08-17T10:52:33.719Z,62.01
2018-08-17T10:53:33.573Z,62.04
2018-08-17T10:54:33.667Z,61.96
2018-08-17T10:55:33.847Z,62.01
2018-08-17T10:56:33.449Z,62.07
2018-08-17T10:57:34.176Z,62.02
2018-08-17T10:58:33.993Z,62.03
2018-08-17T10:59:33.691Z,62.02
2018-08-17T11:00:34.182Z,62.22
2018-08-17T11:01:33.629Z,62
2018-08-17T11:02:33.742Z,62.03
2018-08-17T11:03:33.490Z,62.05
2018-08-17T11:04:33.755Z,61.99
2018-08-17T11:05:33.594Z,62.08
2018-08-17T11:06:33.691Z,62.08
2018-08-17T11:07:33.916Z,62.04
2018-08-17T11:08:33.623Z,62.12
2018-08-17T11:09:33.805Z,62.17
2018-08-17T11:10:33.681Z,62.1
2018-08-17T11:11:33.658Z,61.97
2018-08-17T11:12:33.673Z,62.1
2018-08-17T11:13:33.686Z,61.94
2018-08-17T11:14:33.405Z,62.07
2018-08-17T11:15:33.451Z,62.11
2018-08-17T11:16:33.626Z,62.21
2018-08-17T11:17:33.914Z,62.11
2018-08-17T11:18:33.693Z,62.09
2018-08-17T11:19:33.689Z,62.05
2018-08-17T11:20:33.672Z,62.12
2018-08-17T11:21:33.760Z,62.09
2018-08-17T11:22:33.757Z,62.14
2018-08-17T11:23:33.629Z,62.15
2018-08-17T11:24:33.620Z,62.1
2018-08-17T11:25:33.641Z,62.03
2018-08-17T11:26:33.933Z,61.98
2018-08-17T11:27:33.711Z,62.15
2018-08-17T11:28:34.244Z,62.16
2018-08-17T11:29:33.496Z,62.05
2018-08-17T11:30:33.889Z,62.14
2018-08-17T11:31:33.600Z,62.15
2018-08-17T11:32:33.541Z,62.22
2018-08-17T11:33:33.537Z,62.14
2018-08-17T11:34:33.421Z,62.06
2018-08-17T11:35:33.773Z,61.92
2018-08-17T11:36:33.591Z,62.03
2018-08-17T11:37:34.117Z,62.01
2018-08-17T11:38:33.595Z,62
2018-08-17T11:39:33.604Z,61.96
2018-08-17T11:40:33.632Z,62.13
2018-08-17T11:41:33.826Z,62.07
2018-08-17T11:42:33.497Z,62.11
2018-08-17T11:43:33.694Z,62.08
2018-08-17T11:44:33.857Z,62.13
2018-08-17T11:45:34.044Z,62.1
2018-08-17T11:46:33.474Z,62
2018-08-17T11:47:33.479Z,62.03
2018-08-17T11:48:33.532Z,61.95
2018-08-17T11:49:33.509Z,62.12
2018-08-17T11:50:33.875Z,61.86
2018-08-17T11:51:33.720Z,62.06
2018-08-17T11:52:33.423Z,62.13
2018-08-17T11:53:33.803Z,62
2018-08-17T11:54:33.571Z,62.01
2018-08-17T11:55:33.744Z,62.08
2018-08-17T11:56:33.651Z,62.2
2018-08-17T11:57:33.672Z,61.92
2018-08-17T11:58:33.737Z,62.01
2018-08-17T11:59:33.915Z,62.04
2018-08-17T12:00:33.884Z,62.01
2018-08-17T12:01:33.396Z,62.13
2018-08-17T12:02:33.645Z,62.06
2018-08-17T12:03:33.621Z,62.21
2018-08-17T12:04:33.822Z,62.11
2018-08-17T12:05:34.160Z,62.17
2018-08-17T12:06:33.919Z,62.06
2018-08-17T12:07:33.844Z,62.05
2018-08-17T12:08:33.886Z,62.08
2018-08-17T12:09:33.726Z,62.09
2018-08-17T12:10:33.478Z,61.85
2018-08-17T12:11:33.643Z,62.13
2018-08-17T12:12:33.698Z,62
2018-08-17T12:13:33.689Z,61.93
2018-08-17T12:14:33.401Z,61.95
2018-08-17T12:15:33.561Z,62.29
2018-08-17T12:16:33.685Z,62.05
2018-08-17T12:17:33.857Z,62.11
2018-08-17T12:18:33.691Z,62.06
2018-08-17T12:19:33.692Z,61.98
2018-08-17T12:20:33.717Z,61.9
2018-08-17T12:21:33.600Z,61.97
2018-08-17T12:22:33.772Z,62.01
2018-08-17T12:23:33.630Z,62.03
2018-08-17T12:24:34.319Z,62.05
2018-08-17T12:25:33.642Z,61.92
2018-08-17T12:26:33.983Z,62
2018-08-17T12:27:33.603Z,62.2
2018-08-17T12:28:33.527Z,62.23
2018-08-17T12:29:33.743Z,62.22
2018-08-17T12:30:33.670Z,62.3
2018-08-17T12:31:33.677Z,62.24
2018-08-17T12:32:33.415Z,62.33
2018-08-17T12:33:33.712Z,62.56
2018-08-17T12:34:33.723Z,62.48
2018-08-17T12:35:33.983Z,62.83
2018-08-17T12:36:33.453Z,62.7
2018-08-17T12:37:33.414Z,62.75
2018-08-17T12:38:33.677Z,62.74
2018-08-17T12:39:34.141Z,62.74
2018-08-17T12:40:33.713Z,62.75
2018-08-17T12:41:33.473Z,62.65
2018-08-17T12:42:33.564Z,62.88
2018-08-17T12:43:33.623Z,62.89
2018-08-17T12:44:33.809Z,62.96
2018-08-17T12:45:33.711Z,62.74
2018-08-17T12:46:33.726Z,62.86
2018-08-17T12:47:33.794Z,62.69
2018-08-17T12:48:33.424Z,62.71
2018-08-17T12:49:33.584Z,62.73
2018-08-17T12:50:33.831Z,62.77
2018-08-17T12:51:33.459Z,62.8
2018-08-17T12:52:33.645Z,62.83
2018-08-17T12:53:33.747Z,62.86
2018-08-17T12:54:33.533Z,62.83
2018-08-17T12:55:33.617Z,62.86
2018-08-17T12:56:33.518Z,62.89
2018-08-17T12:57:33.528Z,62.92